< Typhoon 200604 2006 Season Typhoon 200606 >
Typhoon 200605 (KAEMI)
General InformationTrack Information on Google MapsDetailed Wind InformationAccess Analytics MapList of All Images || NewsDisaster Info.WeblogTrackbackTyphoon FrontResourceGoogle EarthGE AnimationAtom FeedGeoJSON
Detalied Best Track (Time Zone = UTC)
Year Month Day Hour Lat. Long. Pressure (hPa) Wind (kt) Class Image Chart
2006 7 17 18 8.9 147.8 1006 0 2 Image Chart
2006 7 18 00 9.4 147.2 1006 0 2 Image Chart
2006 7 18 06 9.7 146.0 1004 0 2 Image Chart
2006 7 18 12 10.2 144.5 1004 0 2 Image Chart
2006 7 18 18 10.4 143.3 1004 0 2 Image Chart
2006 7 19 00 11.0 142.0 1004 0 2 Image Chart
2006 7 19 06 11.7 140.8 1002 0 2 Image Chart
2006 7 19 12 12.0 140.0 998 35 3 Image Chart
2006 7 19 18 12.1 139.0 994 40 3 Image Chart
2006 7 20 00 12.6 138.4 992 50 4 Image Chart
2006 7 20 06 13.5 137.7 985 55 4 Image Chart
2006 7 20 12 14.0 136.4 980 60 4 Image Chart
2006 7 20 18 14.7 135.4 975 65 5 Image Chart
2006 7 21 00 15.4 134.1 970 70 5 Image Chart
2006 7 21 06 15.8 132.8 965 75 5 Image Chart
2006 7 21 12 16.1 131.7 960 80 5 Image Chart
2006 7 21 18 16.4 130.8 960 80 5 Image Chart
2006 7 22 00 16.6 129.7 960 80 5 Image Chart
2006 7 22 06 16.9 129.1 960 80 5 Image Chart
2006 7 22 12 17.1 128.8 960 80 5 Image Chart
2006 7 22 18 18.0 128.1 960 80 5 Image Chart
2006 7 23 00 18.5 127.5 960 80 5 Image Chart
2006 7 23 06 19.4 126.5 960 80 5 Image Chart
2006 7 23 12 20.1 125.5 965 75 5 Image Chart
2006 7 23 18 20.5 124.5 965 75 5 Image Chart
2006 7 24 00 20.8 123.8 970 70 5 Image Chart
2006 7 24 06 21.6 122.7 970 70 5 Image Chart
2006 7 24 12 22.3 121.3 975 65 5 Image Chart
2006 7 24 18 23.1 120.3 985 60 4 Image Chart
2006 7 25 00 23.6 119.6 985 55 4 Image Chart
2006 7 25 06 24.2 118.8 985 50 4 Image Chart
2006 7 25 12 24.3 117.6 990 45 3 Image Chart
2006 7 25 18 24.4 116.6 990 40 3 Image Chart
2006 7 26 00 24.8 116.0 992 0 2 Image Chart
2006 7 26 06 24.9 115.1 994 0 2 Image Chart
2006 7 26 12 25.1 114.6 996 0 2 Image Chart
2006 7 26 18 25.2 113.9 998 0 2 Image Chart
2006 7 27 00 25.0 113.2 1000 0 2 Image Chart
Japan Meteorological Agency Best Track Data | Correction Date : 2010-03-26
< Typhoon 200604 2006 Season Typhoon 200606 >

Help